createdAt,value
2022-12-29T00:01:03.732Z,98964.56
2022-12-29T00:03:31.990Z,98960.88
2022-12-29T00:06:01.955Z,98936.72
2022-12-29T00:08:40.802Z,98950.13
2022-12-29T00:11:09.870Z,98942.09
2022-12-29T00:13:55.177Z,98943.13
2022-12-29T00:16:25.157Z,98904.09
2022-12-29T00:18:53.283Z,98932.41
2022-12-29T00:21:40.996Z,98925.34
2022-12-29T00:24:31.306Z,98888.72
2022-12-29T00:27:28.747Z,98921.66
2022-12-29T00:30:14.120Z,98920.81
2022-12-29T00:33:01.163Z,98919.97
2022-12-29T00:35:32.565Z,98915.00
2022-12-29T00:38:22.031Z,98916.31
2022-12-29T00:41:07.805Z,98909.25
2022-12-29T00:43:53.523Z,98903.91
2022-12-29T00:46:21.696Z,98903.91
2022-12-29T00:49:08.762Z,98903.91
2022-12-29T00:51:36.877Z,98898.53
2022-12-29T00:54:05.122Z,98890.66
2022-12-29T00:56:33.212Z,98886.16
2022-12-29T00:59:02.981Z,98887.81
2022-12-29T01:01:31.394Z,98882.44
2022-12-29T01:04:04.117Z,98883.28
2022-12-29T01:06:33.123Z,98866.34
2022-12-29T01:09:18.614Z,98868.03
2022-12-29T01:11:46.908Z,98851.94
2022-12-29T01:14:15.147Z,98853.59
2022-12-29T01:16:43.432Z,98853.59
2022-12-29T01:19:13.185Z,98842.88
2022-12-29T01:21:41.271Z,98837.53
2022-12-29T01:24:09.452Z,98837.53
2022-12-29T01:26:37.573Z,98832.16
2022-12-29T01:29:05.654Z,98823.47
2022-12-29T01:31:33.806Z,98826.78
2022-12-29T01:34:02.098Z,98816.06
2022-12-29T01:36:32.238Z,98821.44
2022-12-29T01:39:00.384Z,98807.00
2022-12-29T01:41:28.857Z,98807.00
2022-12-29T01:43:58.747Z,98796.28
2022-12-29T01:46:30.508Z,98765.06
2022-12-29T01:49:04.820Z,98791.75
2022-12-29T01:51:37.882Z,98788.22
2022-12-29T01:54:11.651Z,98760.25
2022-12-29T01:56:39.732Z,98768.66
2022-12-29T01:59:13.495Z,98769.47
2022-12-29T02:01:42.696Z,98780.19
2022-12-29T02:04:13.563Z,98755.06
2022-12-29T02:06:48.539Z,98759.56
2022-12-29T02:09:16.616Z,98758.72
2022-12-29T02:11:46.461Z,98739.34
2022-12-29T02:14:16.329Z,98737.28
2022-12-29T02:17:00.284Z,98732.75
2022-12-29T02:20:06.866Z,98733.59
2022-12-29T02:22:47.172Z,98718.72
2022-12-29T02:25:47.824Z,98713.16
2022-12-29T02:28:40.731Z,98710.47
2022-12-29T02:31:19.828Z,98703.47
2022-12-29T02:33:59.674Z,98692.72
2022-12-29T02:36:35.122Z,98692.72
2022-12-29T02:39:13.567Z,98687.38
2022-12-29T02:41:54.457Z,98687.38
2022-12-29T02:44:31.293Z,98670.44
2022-12-29T02:47:06.862Z,98678.69
2022-12-29T02:49:40.651Z,98675.63
2022-12-29T02:52:13.209Z,98672.13
2022-12-29T02:54:44.834Z,98670.25
2022-12-29T02:57:29.735Z,98662.22
2022-12-29T03:00:02.132Z,98653.16
2022-12-29T03:02:51.283Z,98653.16
2022-12-29T03:05:42.891Z,98635.41
2022-12-29T03:08:24.627Z,98635.41
2022-12-29T03:11:01.659Z,98624.69
2022-12-29T03:13:53.633Z,98624.69
2022-12-29T03:16:25.732Z,98617.66
2022-12-29T03:19:01.853Z,98603.59
2022-12-29T03:21:53.868Z,98612.31
2022-12-29T03:24:24.901Z,98596.59
2022-12-29T03:26:57.190Z,98607.78
2022-12-29T03:29:27.671Z,98597.88
2022-12-29T03:31:57.762Z,98600.34
2022-12-29T03:34:28.786Z,98588.81
2022-12-29T03:37:05.054Z,98595.81
2022-12-29T03:39:34.026Z,98589.81
2022-12-29T03:42:07.347Z,98595.81
2022-12-29T03:44:37.554Z,98583.47
2022-12-29T03:47:06.011Z,98583.47
2022-12-29T03:49:35.852Z,98570.84
2022-12-29T03:52:04.433Z,98562.00
2022-12-29T03:54:33.144Z,98573.53
2022-12-29T03:57:01.253Z,98551.28
2022-12-29T03:59:29.363Z,98548.59
2022-12-29T04:01:57.480Z,98545.91
2022-12-29T04:04:25.635Z,98545.91
2022-12-29T04:06:55.127Z,98540.56
2022-12-29T04:09:23.180Z,98533.31
2022-12-29T04:11:51.265Z,98536.84
2022-12-29T04:14:19.532Z,98536.66
2022-12-29T04:16:47.637Z,98520.75
2022-12-29T04:19:15.818Z,98516.44
2022-12-29T04:21:43.925Z,98517.03
2022-12-29T04:24:14.091Z,98519.09
2022-12-29T04:26:42.716Z,98519.72
2022-12-29T04:29:10.779Z,98504.66
2022-12-29T04:31:38.949Z,98505.50
2022-12-29T04:34:07.128Z,98502.63
2022-12-29T04:36:35.282Z,98500.97
2022-12-29T04:39:03.403Z,98496.63
2022-12-29T04:41:32.975Z,98504.28
2022-12-29T04:44:01.106Z,98502.63
2022-12-29T04:46:29.272Z,98498.28
2022-12-29T04:48:57.436Z,98482.28
2022-12-29T04:51:25.574Z,98500.97
2022-12-29T04:53:53.683Z,98500.16
2022-12-29T04:56:21.845Z,98492.09
2022-12-29T04:58:51.335Z,98495.19
2022-12-29T05:01:19.595Z,98497.28
2022-12-29T05:03:47.785Z,98489.41
2022-12-29T05:06:15.951Z,98493.94
2022-12-29T05:08:44.055Z,98484.06
2022-12-29T05:11:12.151Z,98395.63
2022-12-29T05:13:40.276Z,98470.47
2022-12-29T05:16:10.017Z,98465.09
2022-12-29T05:18:38.168Z,98468.78
2022-12-29T05:21:06.441Z,98465.50
2022-12-29T05:23:34.471Z,98468.78
2022-12-29T05:26:02.533Z,98465.09
2022-12-29T05:28:30.639Z,98452.09
2022-12-29T05:30:58.812Z,98463.41
2022-12-29T05:33:28.346Z,98452.69
2022-12-29T05:35:56.385Z,98441.97
2022-12-29T05:38:24.477Z,98444.03
2022-12-29T05:40:52.509Z,98440.31
2022-12-29T05:43:20.539Z,98446.53
2022-12-29T05:45:50.806Z,98435.81
2022-12-29T05:48:18.844Z,98433.94
2022-12-29T05:50:50.769Z,98440.31
2022-12-29T05:53:19.594Z,98432.28
2022-12-29T05:55:49.443Z,98437.63
2022-12-29T05:58:17.610Z,98440.31
2022-12-29T06:00:45.877Z,98432.28
2022-12-29T06:03:14.093Z,98424.25
2022-12-29T06:05:42.246Z,98424.25
2022-12-29T06:08:11.687Z,98418.03
2022-12-29T06:10:39.753Z,98425.06
2022-12-29T06:13:08.031Z,98418.88
2022-12-29T06:15:37.210Z,98408.16
2022-12-29T06:18:05.302Z,98413.50
2022-12-29T06:20:33.412Z,98409.78
2022-12-29T06:23:01.664Z,98407.13
2022-12-29T06:25:33.336Z,98399.06
2022-12-29T06:28:01.809Z,98401.75
2022-12-29T06:30:29.920Z,98399.06
2022-12-29T06:32:58.036Z,98399.06
2022-12-29T06:35:26.235Z,98382.97
2022-12-29T06:37:54.412Z,98379.69
2022-12-29T06:40:22.741Z,98382.97
2022-12-29T06:42:52.368Z,98377.63
2022-12-29T06:45:20.453Z,98384.66
2022-12-29T06:47:48.564Z,98374.94
2022-12-29T06:50:16.730Z,98376.81
2022-12-29T06:52:45.420Z,98370.63
2022-12-29T06:55:13.494Z,98381.34
2022-12-29T06:57:41.597Z,98382.97
2022-12-29T07:00:12.404Z,98368.78
2022-12-29T07:02:40.754Z,98366.91
2022-12-29T07:05:10.422Z,98372.25
2022-12-29T07:07:38.525Z,98368.56
2022-12-29T07:10:07.304Z,98366.91
2022-12-29T07:12:35.497Z,98354.53
2022-12-29T07:15:03.812Z,98354.53
2022-12-29T07:17:33.349Z,98355.38
2022-12-29T07:20:01.979Z,98353.69
2022-12-29T07:22:30.047Z,98334.72
2022-12-29T07:24:58.164Z,98356.16
2022-12-29T07:27:26.289Z,98350.81
2022-12-29T07:29:54.393Z,98352.50
2022-12-29T07:32:22.616Z,98376.63
2022-12-29T07:34:52.219Z,98347.13
2022-12-29T07:37:21.057Z,98359.50
2022-12-29T07:39:49.192Z,98349.81
2022-12-29T07:42:17.285Z,98358.47
2022-12-29T07:44:46.223Z,98343.41
2022-12-29T07:47:14.392Z,98352.50
2022-12-29T07:49:42.461Z,98353.28
2022-12-29T07:52:12.019Z,98354.13
2022-12-29T07:54:40.679Z,98363.22
2022-12-29T07:57:08.778Z,98364.84
2022-12-29T07:59:36.940Z,98359.50
2022-12-29T08:02:05.177Z,98363.00
2022-12-29T08:04:33.342Z,98351.44
2022-12-29T08:07:01.929Z,98363.22
2022-12-29T08:09:31.502Z,98359.50
2022-12-29T08:11:59.579Z,98361.53
2022-12-29T08:14:27.725Z,98355.97
2022-12-29T08:16:55.819Z,98364.84
2022-12-29T08:19:23.927Z,98363.22
2022-12-29T08:21:52.347Z,98364.03
2022-12-29T08:24:20.422Z,98340.09
2022-12-29T08:26:49.954Z,98349.16
2022-12-29T08:29:18.046Z,98363.22
2022-12-29T08:31:46.512Z,98357.84
2022-12-29T08:34:14.698Z,98354.13
2022-12-29T08:36:42.817Z,98348.78
2022-12-29T08:39:11.392Z,98347.13
2022-12-29T08:41:39.573Z,98352.50
2022-12-29T08:44:09.137Z,98352.50
2022-12-29T08:46:37.314Z,98341.75
2022-12-29T08:49:05.539Z,98342.56
2022-12-29T08:51:33.637Z,98345.44
2022-12-29T08:54:01.955Z,98347.13
2022-12-29T08:56:30.444Z,98347.13
2022-12-29T08:58:58.773Z,98351.66
2022-12-29T09:01:28.381Z,98344.44
2022-12-29T09:06:45.517Z,98344.63
2022-12-29T09:09:14.303Z,98343.81
2022-12-29T09:11:44.321Z,98345.84
2022-12-29T09:14:12.540Z,98348.13
2022-12-29T09:17:00.624Z,98324.00
2022-12-29T09:19:28.679Z,98345.44
2022-12-29T09:21:56.718Z,98324.00
2022-12-29T09:24:24.855Z,98334.72
2022-12-29T09:26:52.891Z,98324.41
2022-12-29T09:29:20.935Z,98324.00
2022-12-29T09:31:50.440Z,98315.16
2022-12-29T09:34:18.812Z,98318.63
2022-12-29T09:36:46.895Z,98320.72
2022-12-29T09:39:15.257Z,98334.72
2022-12-29T09:41:51.127Z,98320.31
2022-12-29T09:44:25.287Z,98320.72
2022-12-29T09:46:56.893Z,98275.25
2022-12-29T09:49:32.106Z,98324.00
2022-12-29T09:52:07.031Z,98318.63
2022-12-29T09:54:53.708Z,98310.59
2022-12-29T09:57:29.801Z,98314.94
2022-12-29T10:00:01.903Z,98313.28
2022-12-29T10:02:39.403Z,98298.03
2022-12-29T10:05:18.414Z,98313.28
2022-12-29T10:07:55.743Z,98310.78
2022-12-29T10:10:37.139Z,98326.69
2022-12-29T10:13:23.558Z,98317.00
2022-12-29T10:16:04.687Z,98313.28
2022-12-29T10:18:57.987Z,98322.34
2022-12-29T10:21:40.072Z,98330.59
2022-12-29T10:24:12.327Z,98327.91
2022-12-29T10:26:43.820Z,98320.91
2022-12-29T10:29:21.082Z,98332.25
2022-12-29T10:31:52.957Z,98321.31
2022-12-29T10:34:27.644Z,98322.34
2022-12-29T10:37:02.257Z,98317.00
2022-12-29T10:39:35.132Z,98317.00
2022-12-29T10:42:16.122Z,98290.69
2022-12-29T10:44:44.364Z,98327.72
2022-12-29T10:47:17.623Z,98318.84
2022-12-29T10:49:49.963Z,98323.19
2022-12-29T10:52:21.517Z,98327.72
2022-12-29T10:54:54.416Z,98325.69
2022-12-29T10:57:28.552Z,98329.38
2022-12-29T10:59:56.924Z,98312.38
2022-12-29T11:02:44.259Z,98318.63
2022-12-29T11:05:24.663Z,98334.72
2022-12-29T11:07:55.629Z,98329.75
2022-12-29T11:10:36.361Z,98325.03
2022-12-29T11:13:07.200Z,98333.09
2022-12-29T11:15:42.048Z,98329.38
2022-12-29T11:18:21.367Z,98334.72
2022-12-29T11:20:51.933Z,98337.59
2022-12-29T11:23:30.745Z,98325.03
2022-12-29T11:26:19.880Z,98325.03
2022-12-29T11:28:52.540Z,98333.09
2022-12-29T11:31:24.312Z,98322.34
2022-12-29T11:33:52.415Z,98324.00
2022-12-29T11:36:25.484Z,98321.31
2022-12-29T11:38:55.662Z,98324.00
2022-12-29T11:41:26.316Z,98321.31
2022-12-29T11:43:56.412Z,98329.38
2022-12-29T11:46:28.643Z,98330.19
2022-12-29T11:48:59.729Z,98331.03
2022-12-29T11:51:32.771Z,98317.63
2022-12-29T11:54:03.773Z,98329.38
2022-12-29T11:56:41.618Z,98323.19
2022-12-29T11:59:42.388Z,98326.69
2022-12-29T12:02:43.054Z,98334.72
2022-12-29T12:05:28.146Z,98317.19
2022-12-29T12:08:04.391Z,98294.63
2022-12-29T12:10:39.728Z,98339.28
2022-12-29T12:13:17.037Z,98336.78
2022-12-29T12:15:54.537Z,98322.34
2022-12-29T12:18:34.545Z,98329.38
2022-12-29T12:21:11.581Z,98334.13
2022-12-29T12:23:54.414Z,98325.03
2022-12-29T12:26:30.364Z,98333.09
2022-12-29T12:29:03.265Z,98331.44
2022-12-29T12:31:45.596Z,98327.72
2022-12-29T12:34:18.488Z,98336.78
2022-12-29T12:36:58.807Z,98328.75
2022-12-29T12:39:39.313Z,98338.44
2022-12-29T12:42:22.242Z,98334.72
2022-12-29T12:45:02.012Z,98325.03
2022-12-29T12:47:47.635Z,98326.69
2022-12-29T12:50:29.580Z,98319.03
2022-12-29T12:53:12.111Z,98334.72
2022-12-29T12:55:55.161Z,98336.78
2022-12-29T12:58:33.201Z,98335.97
2022-12-29T13:01:14.428Z,98342.16
2022-12-29T13:03:56.126Z,98336.78
2022-12-29T13:06:37.480Z,98330.41
2022-12-29T13:09:23.617Z,98342.16
2022-12-29T13:12:06.782Z,98342.16
2022-12-29T13:14:46.752Z,98344.84
2022-12-29T13:17:28.615Z,98337.59
2022-12-29T13:20:11.207Z,98335.13
2022-12-29T13:22:48.231Z,98335.75
2022-12-29T13:25:33.368Z,98339.47
2022-12-29T13:28:08.288Z,98323.38
2022-12-29T13:30:47.297Z,98336.78
2022-12-29T13:33:26.624Z,98339.47
2022-12-29T13:36:03.142Z,98343.81
2022-12-29T13:38:37.684Z,98342.94
2022-12-29T13:41:10.345Z,98365.25
2022-12-29T13:43:44.519Z,98346.69
2022-12-29T13:46:15.872Z,98373.28
2022-12-29T13:48:52.053Z,98361.53
2022-12-29T13:51:27.653Z,98356.56
2022-12-29T13:54:14.503Z,98356.16
2022-12-29T13:56:49.377Z,98368.97
2022-12-29T13:59:26.423Z,98374.94
2022-12-29T14:02:01.300Z,98381.34
2022-12-29T14:04:34.157Z,98381.34
2022-12-29T14:07:05.066Z,98390.22
2022-12-29T14:09:44.482Z,98381.34
2022-12-29T14:12:34.702Z,98397.44
2022-12-29T14:15:17.741Z,98394.09
2022-12-29T14:17:46.523Z,98369.25
2022-12-29T14:20:23.654Z,98386.69
2022-12-29T14:23:00.670Z,98352.31
2022-12-29T14:26:11.542Z,98392.06
2022-12-29T14:28:41.180Z,98392.06
2022-12-29T14:31:42.496Z,98372.59
2022-12-29T14:34:29.913Z,98405.47
2022-12-29T14:36:59.581Z,98400.09
2022-12-29T14:39:38.981Z,98408.53
2022-12-29T14:42:13.221Z,98411.88
2022-12-29T14:44:50.217Z,98412.69
2022-12-29T14:47:22.782Z,98411.88
2022-12-29T14:49:51.220Z,98422.59
2022-12-29T14:52:23.032Z,98377.09
2022-12-29T14:54:56.021Z,98418.03
2022-12-29T14:57:39.650Z,98424.44
2022-12-29T15:00:17.012Z,98417.22
2022-12-29T15:02:51.070Z,98424.25
2022-12-29T15:05:31.998Z,98431.63
2022-12-29T15:08:01.115Z,98428.75
2022-12-29T15:10:38.060Z,98421.31
2022-12-29T15:13:16.047Z,98432.47
2022-12-29T15:15:44.203Z,98437.84
2022-12-29T15:18:25.797Z,98428.97
2022-12-29T15:20:57.482Z,98433.72
2022-12-29T15:23:26.032Z,98444.03
2022-12-29T15:25:57.456Z,98445.69
2022-12-29T15:28:26.211Z,98445.69
2022-12-29T15:30:57.222Z,98461.78
2022-12-29T15:33:29.699Z,98452.69
2022-12-29T15:36:04.180Z,98448.38
2022-12-29T15:38:40.041Z,98463.41
2022-12-29T15:41:15.959Z,98472.50
2022-12-29T15:43:54.733Z,98460.13
2022-12-29T15:46:23.048Z,98469.81
2022-12-29T15:48:53.021Z,98466.09
2022-12-29T15:51:24.606Z,98472.50
2022-12-29T15:53:54.279Z,98483.59
2022-12-29T15:56:22.547Z,98482.38
2022-12-29T15:58:52.487Z,98483.22
2022-12-29T16:01:22.460Z,98488.59
2022-12-29T16:03:52.830Z,98499.31
2022-12-29T16:06:33.498Z,98484.88
2022-12-29T16:09:04.654Z,98480.66
2022-12-29T16:11:36.857Z,98488.78
2022-12-29T16:14:09.988Z,98485.25
2022-12-29T16:16:40.876Z,98492.28
2022-12-29T16:19:16.429Z,98499.50
2022-12-29T16:21:45.651Z,98503.03
2022-12-29T16:24:17.922Z,98494.72
2022-12-29T16:26:51.810Z,98511.69
2022-12-29T16:29:23.051Z,98492.69
2022-12-29T16:32:01.333Z,98511.69
2022-12-29T16:34:34.273Z,98496.44
2022-12-29T16:37:04.762Z,98502.63
2022-12-29T16:39:36.936Z,98500.34
2022-12-29T16:42:38.447Z,98517.88
2022-12-29T16:45:56.206Z,98506.72
2022-12-29T16:48:27.985Z,98517.03
2022-12-29T16:51:04.325Z,98519.72
2022-12-29T16:53:37.009Z,98523.81
2022-12-29T16:56:10.416Z,98531.47
2022-12-29T16:58:38.857Z,98512.06
2022-12-29T17:01:15.541Z,98526.13
2022-12-29T17:03:48.681Z,98518.47
2022-12-29T17:06:19.238Z,98531.47
2022-12-29T17:08:48.639Z,98526.13
2022-12-29T17:11:41.851Z,98531.47
2022-12-29T17:14:22.681Z,98533.13
2022-12-29T17:16:51.046Z,98547.56
2022-12-29T17:19:20.285Z,98542.22
2022-12-29T17:21:49.774Z,98535.81
2022-12-29T17:24:19.846Z,98544.69
2022-12-29T17:26:51.408Z,98554.56
2022-12-29T17:29:23.915Z,98558.94
2022-12-29T17:31:54.494Z,98559.94
2022-12-29T17:34:23.129Z,98555.41
2022-12-29T17:36:52.586Z,98570.66
2022-12-29T17:39:20.667Z,98570.66
2022-12-29T17:41:49.276Z,98559.13
2022-12-29T17:44:19.890Z,98570.66
2022-12-29T17:46:49.519Z,98576.03
2022-12-29T17:49:19.694Z,98576.03
2022-12-29T17:51:48.582Z,98570.66
2022-12-29T17:54:22.964Z,98533.31
2022-12-29T17:56:51.268Z,98584.06
2022-12-29T17:59:19.987Z,98584.72
2022-12-29T18:01:50.146Z,98592.13
2022-12-29T18:04:20.643Z,98599.16
2022-12-29T18:06:48.801Z,98588.44
2022-12-29T18:09:18.393Z,98587.59
2022-12-29T18:11:47.916Z,98588.81
2022-12-29T18:14:17.897Z,98596.47
2022-12-29T18:16:45.997Z,98592.97
2022-12-29T18:19:14.168Z,98569.53
2022-12-29T18:21:44.630Z,98594.19
2022-12-29T18:24:15.984Z,98592.13
2022-12-29T18:26:44.068Z,98597.47
2022-12-29T18:29:13.809Z,98601.66
2022-12-29T18:31:41.869Z,98595.44
2022-12-29T18:34:15.438Z,98606.16
2022-12-29T18:36:43.486Z,98613.56
2022-12-29T18:39:12.432Z,98618.13
2022-12-29T18:41:40.534Z,98617.28
2022-12-29T18:44:14.827Z,98618.94
2022-12-29T18:46:42.971Z,98613.56
2022-12-29T18:49:11.032Z,98612.94
2022-12-29T18:51:39.167Z,98624.28
2022-12-29T18:54:07.248Z,98617.28
2022-12-29T18:56:35.362Z,98621.41
2022-12-29T18:59:03.423Z,98622.25
2022-12-29T19:01:32.927Z,98620.63
2022-12-29T19:04:01.124Z,98627.63
2022-12-29T19:06:29.165Z,98630.50
2022-12-29T19:08:57.234Z,98631.34
2022-12-29T19:11:26.132Z,98621.00
2022-12-29T19:13:54.171Z,98625.97
2022-12-29T19:16:23.772Z,98633.38
2022-12-29T19:19:08.397Z,98625.97
2022-12-29T19:21:37.772Z,98635.00
2022-12-29T19:24:06.090Z,98629.66
2022-12-29T19:26:36.593Z,98642.06
2022-12-29T19:29:05.628Z,98638.72
2022-12-29T19:31:33.786Z,98642.06
2022-12-29T19:34:03.992Z,98648.22
2022-12-29T19:36:32.260Z,98659.78
2022-12-29T19:39:00.717Z,98654.81
2022-12-29T19:41:28.899Z,98661.81
2022-12-29T19:43:57.352Z,98663.50
2022-12-29T19:46:25.811Z,98663.69
2022-12-29T19:48:54.981Z,98673.22
2022-12-29T19:51:24.435Z,98669.25
2022-12-29T19:53:52.707Z,98672.56
2022-12-29T19:56:20.981Z,98672.56
2022-12-29T19:58:50.347Z,98678.75
2022-12-29T20:01:20.356Z,98676.91
2022-12-29T20:03:48.820Z,98653.66
2022-12-29T20:06:17.552Z,98682.66
2022-12-29T20:08:47.205Z,98677.91
2022-12-29T20:11:16.853Z,98682.66
2022-12-29T20:13:45.641Z,98691.50
2022-12-29T20:16:16.161Z,98695.22
2022-12-29T20:18:45.004Z,98689.88
2022-12-29T20:21:14.948Z,98689.03
2022-12-29T20:23:44.943Z,98701.44
2022-12-29T20:26:18.629Z,98705.09
2022-12-29T20:28:47.068Z,98698.47
2022-12-29T20:31:19.734Z,98706.78
2022-12-29T20:33:48.742Z,98705.75
2022-12-29T20:36:18.522Z,98707.59
2022-12-29T20:38:48.547Z,98706.78
2022-12-29T20:41:18.706Z,98719.16
2022-12-29T20:43:46.875Z,98727.88
2022-12-29T20:46:20.520Z,98719.16
2022-12-29T20:48:49.689Z,98715.84
2022-12-29T20:51:17.886Z,98727.88
2022-12-29T20:53:46.100Z,98732.38
2022-12-29T20:56:18.392Z,98732.38
2022-12-29T20:59:25.231Z,98737.75
2022-12-29T21:01:36.011Z,98740.63
2022-12-29T21:04:05.667Z,98735.25
2022-12-29T21:06:34.177Z,98735.25
2022-12-29T21:09:02.383Z,98735.25
2022-12-29T21:11:31.937Z,98729.91
2022-12-29T21:14:01.534Z,98744.34
2022-12-29T21:16:30.545Z,98748.66
2022-12-29T21:18:58.927Z,98743.31
2022-12-29T21:21:27.661Z,98747.19
2022-12-29T21:23:56.062Z,98745.97
2022-12-29T21:26:25.176Z,98756.72
2022-12-29T21:28:54.712Z,98762.91
2022-12-29T21:31:27.747Z,98751.34
2022-12-29T21:33:57.016Z,98762.06
2022-12-29T21:36:27.971Z,98724.13
2022-12-29T21:38:58.270Z,98753.75
2022-12-29T21:41:26.822Z,98727.16
2022-12-29T21:44:13.870Z,98771.75
2022-12-29T21:46:44.033Z,98769.47
2022-12-29T21:49:12.420Z,98770.31
2022-12-29T21:51:53.890Z,98770.94
2022-12-29T21:54:42.767Z,98762.06
2022-12-29T21:57:17.910Z,98760.41
2022-12-29T22:00:07.774Z,98772.78
2022-12-29T22:02:53.198Z,98775.47
2022-12-29T22:05:38.736Z,98781.88
2022-12-29T22:08:24.131Z,98782.88
2022-12-29T22:11:09.730Z,98791.75
2022-12-29T22:13:40.075Z,98800.81
2022-12-29T22:16:11.605Z,98807.00
2022-12-29T22:18:41.192Z,98801.63
2022-12-29T22:21:11.095Z,98792.59
2022-12-29T22:23:39.569Z,98795.28
2022-12-29T22:26:09.640Z,98800.63
2022-12-29T22:28:38.622Z,98768.41
2022-12-29T22:31:07.748Z,98799.78
2022-12-29T22:33:37.288Z,98732.09
2022-12-29T22:36:06.066Z,98814.03
2022-12-29T22:38:34.274Z,98803.31
2022-12-29T22:41:02.360Z,98814.84
2022-12-29T22:43:30.767Z,98810.34
2022-12-29T22:46:04.300Z,98815.69
2022-12-29T22:48:33.588Z,98818.75
2022-12-29T22:51:03.973Z,98821.06
2022-12-29T22:53:32.331Z,98821.06
2022-12-29T22:56:05.243Z,98817.72
2022-12-29T22:58:33.390Z,98820.22
2022-12-29T23:01:01.951Z,98826.41
2022-12-29T23:03:30.163Z,98831.78
2022-12-29T23:05:59.343Z,98816.06
2022-12-29T23:08:30.414Z,98831.78
2022-12-29T23:10:58.649Z,98829.75
2022-12-29T23:13:26.791Z,98828.06
2022-12-29T23:15:55.025Z,98833.44
2022-12-29T23:18:23.378Z,98828.06
2022-12-29T23:20:52.116Z,98830.13
2022-12-29T23:23:48.435Z,98842.31
2022-12-29T23:26:19.327Z,98833.44
2022-12-29T23:28:47.779Z,98846.22
2022-12-29T23:31:16.235Z,98843.34
2022-12-29T23:33:44.572Z,98838.81
2022-12-29T23:36:12.712Z,98842.50
2022-12-29T23:38:40.852Z,98834.47
2022-12-29T23:41:09.135Z,98844.16
2022-12-29T23:43:39.067Z,98838.00
2022-12-29T23:46:08.840Z,98844.16
2022-12-29T23:48:37.495Z,98837.16
2022-12-29T23:51:06.918Z,98803.88
2022-12-29T23:53:35.148Z,98835.50
2022-12-29T23:56:03.855Z,98844.16
2022-12-29T23:58:32.624Z,98839.66
